Azure — ZCEE2 — position and weather

sailwx.info

Track history (hours):
 
Tides and Currents Weather Stations Pressure Air Temp Water Temp Dewpoint Dewpoint Depression Visibility Wind Speed Wind Dir Waves Ship Positions

Azure

Last reported at 2017-Sep-20 20:47 UTC. Time now 2017-Sep-21 01:26 UTC.
Position N 38°35' E 003°42'.

Length 289 m; draft 8.6 m.

Type: Passenger vessel. MMSI: 310610000.

Date/timePositionNaut miles runAvg speedWind from/ knotsBaromVisibWave heightAir tempDewpointWater temp
2017-Sep-20 20:47N 38°35' E 003°42'1119.0
2017-Sep-20 20:11N 38°37' E 003°27'319.1
2017-Sep-20 20:00N 38°38' E 003°23'919.2
2017-Sep-20 19:30N 38°40' E 003°11'1019.3
2017-Sep-20 19:00N 38°42' E 002°59'1019.4
2017-Sep-20 18:30N 38°43' E 002°47'1019.3
2017-Sep-20 18:00N 38°45' E 002°34'919.3
2017-Sep-20 17:31N 38°47' E 002°22'1019.2
2017-Sep-20 17:00N 38°49' E 002°10'1019.2
2017-Sep-20 16:30N 38°51' E 001°58'1019.1
2017-Sep-20 16:00N 38°52' E 001°46'919.0
2017-Sep-20 15:30N 38°53' E 001°34'610.6
2017-Sep-20 14:59N 38°54' E 001°27'0 0.2
2017-Sep-20 14:00N 38°54' E 001°27'0 0.0
2017-Sep-20 13:30N 38°54' E 001°27'0 0.0
2017-Sep-20 13:00N 38°54' E 001°27'0 0.0
2017-Sep-20 12:30N 38°54' E 001°27'0 0.0
2017-Sep-20 12:00N 38°54' E 001°27'0 0.0
2017-Sep-20 11:30N 38°54' E 001°27'0 0.0
2017-Sep-20 11:00N 38°54' E 001°27'0 0.0
2017-Sep-20 10:30N 38°54' E 001°27'0 0.0
2017-Sep-20 10:00N 38°54' E 001°27'0 0.0
2017-Sep-20 09:30N 38°54' E 001°27'0 0.0
2017-Sep-20 09:00N 38°54' E 001°27'0 0.0
2017-Sep-20 08:30N 38°54' E 001°27'0 0.0
2017-Sep-20 08:00N 38°54' E 001°27'0 0.0
2017-Sep-20 07:30N 38°54' E 001°27'0 0.0
2017-Sep-20 07:00N 38°54' E 001°27'0 0.0
2017-Sep-20 06:28N 38°54' E 001°27'2 3.7
2017-Sep-20 06:00N 38°53' E 001°27'917.2
2017-Sep-20 05:31N 38°46' E 001°34'1017.8
2017-Sep-20 04:57N 38°37' E 001°39'6923.4
2017-Sep-20 02:00N 37°54' E 000°30'2613.7 090 / 61020.127.0 23.018.325.0
2017-Sep-20 00:05N 37°39' E 000°02'419.4
2017-Sep-19 23:53N 37°37' W 000°02'719.3
2017-Sep-19 23:30N 37°32' W 000°09'919.1
2017-Sep-19 23:00N 37°27' W 000°19'919.1
2017-Sep-19 22:30N 37°21' W 000°28'1018.9
2017-Sep-19 21:59N 37°16' W 000°38'919.0
2017-Sep-19 21:30N 37°11' W 000°48'5 9.2
2017-Sep-19 21:00N 37°06' W 000°48'2825.8 280 / 41020.410.8 23.518.025.0
2017-Sep-19 19:55N 36°53' W 001°19'818.8
2017-Sep-19 19:30N 36°48' W 001°26'18719.9
2017-Sep-19 10:06N 36°01' W 005°11'221.5
2017-Sep-19 10:00N 36°01' W 005°13'1121.1
2017-Sep-19 09:31N 35°57' W 005°26'14619.4
2017-Sep-19 02:00N 36°18' W 008°24'6917.6 340 / 191021.810.8 18.014.618.0
2017-Sep-18 22:05N 36°56' W 009°35'219.4
2017-Sep-18 21:59N 36°58' W 009°36'1719.4
2017-Sep-18 21:06N 37°15' W 009°40'15144.6
2017-Sep-18 21:00N 37°00' W 009°36'19164.2 330 / 151024.810.8 18.516.020.0
2017-Sep-18 20:52N 37°19' W 009°41'719.6
2017-Sep-18 20:30N 37°26' W 009°43'1019.6
2017-Sep-18 20:01N 37°36' W 009°45'251516.6
2017-Sep-18 20:00N 38°00' W 009°54'1530.0 350 / 131024.210.8 21.515.720.0
2017-Sep-18 19:29N 37°46' W 009°48'918.8
2017-Sep-18 19:00N 37°55' W 009°51'919.0
2017-Sep-18 18:30N 38°03' W 009°55'919.0
2017-Sep-18 18:01N 38°12' W 009°58'1019.5
2017-Sep-18 17:30N 38°22' W 010°02'1019.6
2017-Sep-18 17:01N 38°32' W 010°03'1019.6
2017-Sep-18 16:30N 38°41' W 010°05'1019.8
2017-Sep-18 16:00N 38°51' W 010°06'1019.4
2017-Sep-18 15:31N 39°01' W 010°05'1019.6
2017-Sep-18 15:00N 39°11' W 010°04'4232.2
2017-Sep-18 15:00N 39°12' W 010°00'918.5 1023.710.8 22.017.218.0
2017-Sep-18 14:31N 39°20' W 010°05'1019.1
2017-Sep-18 14:00N 39°30' W 010°05'1019.1
2017-Sep-18 13:30N 39°39' W 010°04'1019.1
2017-Sep-18 13:00N 39°49' W 010°04'19719.7
2017-Sep-18 03:00N 43°06' W 010°06'36519.2 290 / 221017.510.8 18.014.618.0
2017-Sep-17 08:00N 48°18' W 005°36'1542.8 330 / 161013.510.8 12.5 8.515.0
2017-Sep-17 07:38N 48°05' W 005°49'2019.7
2017-Sep-17 06:39N 48°22' W 005°34'319.7
2017-Sep-17 06:29N 48°25' W 005°31'1019.9
2017-Sep-17 06:00N 48°33' W 005°23'918.6
2017-Sep-17 05:30N 48°39' W 005°13'1019.3
2017-Sep-17 05:00N 48°46' W 005°03'1119.6
2017-Sep-17 04:28N 48°53' W 004°51'3221.6
2017-Sep-17 03:00N 49°12' W 004°12'3516.0 1010.410.8 11.5 8.516.0
2017-Sep-17 00:47N 49°37' W 003°34'518.9
2017-Sep-17 00:30N 49°41' W 003°28'1019.5
2017-Sep-17 00:00N 49°47' W 003°16'1020.2
2017-Sep-16 23:30N 49°54' W 003°05'1020.5
2017-Sep-16 23:00N 49°59' W 002°51'1121.1
2017-Sep-16 22:30N 50°02' W 002°35'3220.9
2017-Sep-16 20:58N 50°17' W 001°51'2319.6
2017-Sep-16 19:47N 50°27' W 001°18'518.7
2017-Sep-16 19:30N 50°29' W 001°11'918.2
2017-Sep-16 19:00N 50°35' W 000°60'714.5
2017-Sep-16 18:30N 50°42' W 000°58'612.7
2017-Sep-16 18:00N 50°45' W 001°07'714.0
2017-Sep-16 17:30N 50°47' W 001°18'4 8.9
2017-Sep-16 17:00N 50°51' W 001°20'4 8.6
2017-Sep-16 16:31N 50°54' W 001°25'0 0.9
2017-Sep-16 15:58N 50°54' W 001°26'0 0.0
2017-Sep-16 15:28N 50°54' W 001°26'0 0.0
2017-Sep-16 14:58N 50°54' W 001°26'0 0.0
2017-Sep-16 14:28N 50°54' W 001°26'0 0.0
2017-Sep-16 13:58N 50°54' W 001°26'0 0.0
2017-Sep-16 13:28N 50°54' W 001°26'0 0.0
2017-Sep-16 12:58N 50°54' W 001°26'0 0.0
2017-Sep-16 12:28N 50°54' W 001°26'0 0.0
2017-Sep-16 11:58N 50°54' W 001°26'0 0.0
2017-Sep-16 11:28N 50°54' W 001°26'0 0.0
2017-Sep-16 10:58N 50°54' W 001°26'0 0.0
2017-Sep-16 10:25N 50°54' W 001°26'0 0.0
2017-Sep-16 09:49N 50°54' W 001°26'0 0.0
2017-Sep-16 09:25N 50°54' W 001°26'0 0.0
2017-Sep-16 08:55N 50°54' W 001°26'0 0.0
2017-Sep-16 08:25N 50°54' W 001°26'0 0.0
2017-Sep-16 07:55N 50°54' W 001°26'0 0.0
2017-Sep-16 07:28N 50°54' W 001°26'0 0.0
2017-Sep-16 06:55N 50°54' W 001°26'0 0.0
2017-Sep-16 06:28N 50°54' W 001°26'0 0.0
2017-Sep-16 05:58N 50°54' W 001°26'0 0.0
2017-Sep-16 05:29N 50°54' W 001°26'0 0.5
2017-Sep-16 05:00N 50°54' W 001°26'3 6.6
2017-Sep-16 04:30N 50°52' W 001°22'5 9.9
2017-Sep-16 04:00N 50°48' W 001°18'612.3
2017-Sep-16 03:30N 50°46' W 001°09'917.1
2017-Sep-16 03:00N 50°41' W 000°57'612.6
2017-Sep-16 02:30N 50°37' W 000°50'1019.7
2017-Sep-16 02:01N 50°33' W 000°36'1020.9
2017-Sep-16 01:31N 50°31' W 000°20'1020.8
2017-Sep-16 01:01N 50°31' W 000°03'1121.1
2017-Sep-16 00:31N 50°33' E 000°13'1121.4
2017-Sep-16 00:01N 50°36' E 000°29'1121.6
2017-Sep-15 23:31N 50°41' E 000°44'1121.8
2017-Sep-15 23:01N 50°47' E 000°58'1121.5
2017-Sep-15 22:30N 50°54' E 001°12'1020.9
2017-Sep-15 22:00N 51°02' E 001°22'1020.4
2017-Sep-15 21:31N 51°09' E 001°34'1020.0
2017-Sep-15 21:01N 51°15' E 001°47'918.8
2017-Sep-15 20:31N 51°23' E 001°55'1019.9
2017-Sep-15 20:00N 51°32' E 001°58'1020.2
2017-Sep-15 19:30N 51°42' E 002°04'1020.8
2017-Sep-15 19:00N 51°52' E 002°10'2726.6
2017-Sep-15 18:00N 52°18' E 002°18'8120.2 300 / 201011.0 5.4 12.0 7.918.0
2017-Sep-15 14:00N 53°36' E 002°54'11118.5 300 / 151009.1 5.4 13.5 9.616.0
2017-Sep-15 08:00N 55°24' E 003°36'13222.0 330 / 231005.210.8 14.5 9.716.0
2017-Sep-15 02:00N 57°36' E 003°48'12017.2 330 / 121001.810.8 13.5 9.615.0
2017-Sep-14 19:00N 59°36' E 004°00'5930.9 330 / 22999.010.8 13.0 9.116.0
2017-Sep-14 17:04N 60°34' E 004°22'119.1
2017-Sep-14 17:00N 60°36' E 004°24'918.0
2017-Sep-14 16:30N 60°43' E 004°34'714.7
2017-Sep-14 16:00N 60°43' E 004°49'815.4
2017-Sep-14 15:30N 60°36' E 004°54'918.1
2017-Sep-14 15:00N 60°28' E 005°01'713.7
2017-Sep-14 14:30N 60°23' E 005°11'4 7.6
2017-Sep-14 14:00N 60°24' E 005°19'0 0.0
2017-Sep-14 13:30N 60°24' E 005°19'0 0.0
2017-Sep-14 13:00N 60°24' E 005°19'0 0.0
2017-Sep-14 12:30N 60°24' E 005°19'0 0.0
2017-Sep-14 12:00N 60°24' E 005°19'0 0.0
2017-Sep-14 11:30N 60°24' E 005°19'0 0.0
2017-Sep-14 11:00N 60°24' E 005°19'0 0.0
2017-Sep-14 10:30N 60°24' E 005°19'0 0.0
2017-Sep-14 10:00N 60°24' E 005°19'0 0.0
2017-Sep-14 09:30N 60°24' E 005°19'0 0.0
2017-Sep-14 09:00N 60°24' E 005°19'0 0.0
2017-Sep-14 08:30N 60°24' E 005°19'0 0.0
2017-Sep-14 08:00N 60°24' E 005°19'0 0.0
2017-Sep-14 07:30N 60°24' E 005°19'0 0.0
2017-Sep-14 07:00N 60°24' E 005°19'0 0.0
2017-Sep-14 06:30N 60°24' E 005°19'0 0.0
2017-Sep-14 06:00N 60°24' E 005°19'0 0.0
2017-Sep-14 05:30N 60°24' E 005°19'0 0.0
2017-Sep-14 05:00N 60°24' E 005°19'0 0.8
2017-Sep-14 04:31N 60°24' E 005°18'4 8.7
2017-Sep-14 04:00N 60°24' E 005°09'612.0
2017-Sep-14 03:30N 60°28' E 005°00'714.1
2017-Sep-14 03:00N 60°34' E 004°55'715.0
2017-Sep-14 02:30N 60°41' E 004°50'714.6
2017-Sep-14 02:00N 60°45' E 004°37'714.1
2017-Sep-14 01:31N 60°49' E 004°26'815.0
2017-Sep-14 01:00N 60°55' E 004°17'5113.0
2017-Sep-13 21:06N 61°46' E 004°23'214.6
2017-Sep-13 21:00N 61°47' E 004°25'714.4
2017-Sep-13 20:30N 61°53' E 004°34'713.8
2017-Sep-13 20:00N 61°58' E 004°45'714.7
2017-Sep-13 19:30N 61°56' E 004°60'713.9
2017-Sep-13 19:00N 61°54' E 005°14'815.8
2017-Sep-13 18:30N 61°55' E 005°30'6 0.4
2017-Sep-13 03:00N 61°53' E 005°42'916.9
2017-Sep-13 02:30N 61°55' E 005°25'815.9
2017-Sep-13 02:00N 61°54' E 005°08'713.9
2017-Sep-13 01:30N 61°58' E 004°56'815.2
2017-Sep-13 01:00N 61°58' E 004°40'3913.9
2017-Sep-12 22:11N 61°20' E 004°18'317.5
2017-Sep-12 22:00N 61°18' E 004°21'816.5
2017-Sep-12 21:30N 61°14' E 004°37'817.1
2017-Sep-12 21:00N 61°14' E 004°55'713.6
2017-Sep-12 20:29N 61°09' E 005°06'815.6
2017-Sep-12 20:00N 61°05' E 005°18'816.4
2017-Sep-12 19:30N 61°06' E 005°35'917.3
2017-Sep-12 19:00N 61°08' E 005°52'917.3
2017-Sep-12 18:30N 61°08' E 006°10'917.0
2017-Sep-12 18:00N 61°06' E 006°27'815.3
2017-Sep-12 17:30N 61°11' E 006°40'816.2
2017-Sep-12 17:00N 61°07' E 006°55'816.3
2017-Sep-12 16:30N 61°00' E 007°03'612.9
2017-Sep-12 16:00N 60°55' E 007°10'3 6.3
2017-Sep-12 15:30N 60°52' E 007°07'0 0.2
2017-Sep-12 15:00N 60°52' E 007°07'0 0.0
2017-Sep-12 14:30N 60°52' E 007°07'0 0.0
2017-Sep-12 14:00N 60°52' E 007°07'0 0.0
2017-Sep-12 13:30N 60°52' E 007°07'0 0.0
2017-Sep-12 13:00N 60°52' E 007°07'0 0.0
2017-Sep-12 12:30N 60°52' E 007°07'0 0.0
2017-Sep-12 12:00N 60°52' E 007°07'0 0.0
2017-Sep-12 11:30N 60°52' E 007°07'0 0.0
2017-Sep-12 11:00N 60°52' E 007°07'0 0.0
2017-Sep-12 10:30N 60°52' E 007°07'0 0.0
2017-Sep-12 10:00N 60°52' E 007°07'0 0.0
2017-Sep-12 09:30N 60°52' E 007°07'0 0.0
2017-Sep-12 09:00N 60°52' E 007°07'0 0.0
2017-Sep-12 08:30N 60°52' E 007°07'0 0.0
2017-Sep-12 08:00N 60°52' E 007°07'0 0.0
2017-Sep-12 07:26N 60°52' E 007°07'0 0.0
2017-Sep-12 06:59N 60°52' E 007°07'0 0.0
2017-Sep-12 06:29N 60°52' E 007°07'0 0.0
2017-Sep-12 05:58N 60°52' E 007°07'0 0.0
2017-Sep-12 05:28N 60°52' E 007°07'1 2.7
2017-Sep-12 05:00N 60°53' E 007°08'510.8
2017-Sep-12 04:30N 60°58' E 007°05'714.9
2017-Sep-12 04:00N 61°05' E 006°60'714.6
2017-Sep-12 03:30N 61°10' E 006°49'612.3
2017-Sep-12 03:00N 61°10' E 006°36'713.2
2017-Sep-12 02:30N 61°06' E 006°26'714.5
2017-Sep-12 02:00N 61°07' E 006°11'816.8
2017-Sep-12 01:30N 61°08' E 005°54'916.9
2017-Sep-12 01:00N 61°06' E 005°37'815.9
2017-Sep-12 00:30N 61°04' E 005°21'714.2
2017-Sep-12 00:00N 61°06' E 005°07'714.3
2017-Sep-11 23:30N 61°02' E 004°55'714.6
2017-Sep-11 23:00N 60°58' E 004°43'714.5
2017-Sep-11 22:30N 60°51' E 004°35'815.4
2017-Sep-11 22:00N 60°45' E 004°26'917.8
2017-Sep-11 21:30N 60°36' E 004°27'916.9
2017-Sep-11 21:00N 60°28' E 004°27'5017.6
2017-Sep-11 18:08N 59°38' E 004°40'317.8
2017-Sep-11 18:00N 59°35' E 004°42'917.7
2017-Sep-11 17:31N 59°28' E 004°50'918.0
2017-Sep-11 17:00N 59°20' E 004°58'918.0
2017-Sep-11 16:30N 59°11' E 005°04'815.9
2017-Sep-11 16:01N 59°07' E 005°17'816.2
2017-Sep-11 15:30N 59°05' E 005°32'714.4
2017-Sep-11 15:00N 59°00' E 005°41'2 3.6
2017-Sep-11 14:28N 58°58' E 005°44'0 0.0
2017-Sep-11 13:58N 58°58' E 005°44'0 0.0
2017-Sep-11 13:25N 58°58' E 005°44'0 0.0
2017-Sep-11 12:55N 58°58' E 005°44'0 0.0
2017-Sep-11 12:28N 58°58' E 005°44'0 0.0
2017-Sep-11 11:55N 58°58' E 005°44'0 0.0
2017-Sep-11 11:28N 58°58' E 005°44'0 0.0
2017-Sep-11 10:58N 58°58' E 005°44'0 0.0
2017-Sep-11 10:28N 58°58' E 005°44'0 0.0
2017-Sep-11 09:55N 58°58' E 005°44'0 0.0
2017-Sep-11 09:28N 58°58' E 005°44'0 0.0
2017-Sep-11 08:58N 58°58' E 005°44'0 0.0
2017-Sep-11 08:28N 58°58' E 005°44'0 0.0
2017-Sep-11 07:58N 58°58' E 005°44'0 0.0
2017-Sep-11 07:28N 58°58' E 005°44'0 0.0
2017-Sep-11 06:55N 58°58' E 005°44'0 0.0
2017-Sep-11 06:28N 58°58' E 005°44'0 0.0
2017-Sep-11 05:55N 58°58' E 005°44'0 0.1
2017-Sep-11 05:30N 58°59' E 005°44'2 3.4
2017-Sep-11 05:00N 58°60' E 005°42'510.6
2017-Sep-11 04:30N 59°03' E 005°33'815.6
2017-Sep-11 04:00N 58°55' E 005°32'713.3
2017-Sep-11 03:31N 58°49' E 005°26'917.7
2017-Sep-11 03:01N 58°41' E 005°19'918.2
2017-Sep-11 02:30N 58°32' E 005°12'918.3
2017-Sep-11 02:01N 58°24' E 005°08'12699.3
2017-Sep-11 02:00N 58°12' E 005°06'   140 / 30980.1 5.4 15.013.216.0
Track history (hours):
 
Tides and Currents Weather Stations Pressure Air Temp Water Temp Dewpoint Dewpoint Depression Visibility Wind Speed Wind Dir Waves Ship Positions

Azure

Last reported at 2017-Sep-20 20:47 UTC. Time now 2017-Sep-21 01:26 UTC.
Position N 38°35' E 003°42'.

Length 289 m; draft 8.6 m.

Type: Passenger vessel. MMSI: 310610000.

Date/timePositionNaut miles runAvg speedWind from/ knotsBaromVisibWave heightAir tempDewpointWater temp
2017-Sep-20 20:47N 38°35' E 003°42'1119.0
2017-Sep-20 20:11N 38°37' E 003°27'319.1
2017-Sep-20 20:00N 38°38' E 003°23'919.2
2017-Sep-20 19:30N 38°40' E 003°11'1019.3
2017-Sep-20 19:00N 38°42' E 002°59'1019.4
2017-Sep-20 18:30N 38°43' E 002°47'1019.3
2017-Sep-20 18:00N 38°45' E 002°34'919.3
2017-Sep-20 17:31N 38°47' E 002°22'1019.2
2017-Sep-20 17:00N 38°49' E 002°10'1019.2
2017-Sep-20 16:30N 38°51' E 001°58'1019.1
2017-Sep-20 16:00N 38°52' E 001°46'919.0
2017-Sep-20 15:30N 38°53' E 001°34'610.6
2017-Sep-20 14:59N 38°54' E 001°27'0 0.2
2017-Sep-20 14:00N 38°54' E 001°27'0 0.0
2017-Sep-20 13:30N 38°54' E 001°27'0 0.0
2017-Sep-20 13:00N 38°54' E 001°27'0 0.0
2017-Sep-20 12:30N 38°54' E 001°27'0 0.0
2017-Sep-20 12:00N 38°54' E 001°27'0 0.0
2017-Sep-20 11:30N 38°54' E 001°27'0 0.0
2017-Sep-20 11:00N 38°54' E 001°27'0 0.0
2017-Sep-20 10:30N 38°54' E 001°27'0 0.0
2017-Sep-20 10:00N 38°54' E 001°27'0 0.0
2017-Sep-20 09:30N 38°54' E 001°27'0 0.0
2017-Sep-20 09:00N 38°54' E 001°27'0 0.0
2017-Sep-20 08:30N 38°54' E 001°27'0 0.0
2017-Sep-20 08:00N 38°54' E 001°27'0 0.0
2017-Sep-20 07:30N 38°54' E 001°27'0 0.0
2017-Sep-20 07:00N 38°54' E 001°27'0 0.0
2017-Sep-20 06:28N 38°54' E 001°27'2 3.7
2017-Sep-20 06:00N 38°53' E 001°27'917.2
2017-Sep-20 05:31N 38°46' E 001°34'1017.8
2017-Sep-20 04:57N 38°37' E 001°39'6923.4
2017-Sep-20 02:00N 37°54' E 000°30'2613.7 090 / 61020.127.0 23.018.325.0
2017-Sep-20 00:05N 37°39' E 000°02'419.4
2017-Sep-19 23:53N 37°37' W 000°02'719.3
2017-Sep-19 23:30N 37°32' W 000°09'919.1
2017-Sep-19 23:00N 37°27' W 000°19'919.1
2017-Sep-19 22:30N 37°21' W 000°28'1018.9
2017-Sep-19 21:59N 37°16' W 000°38'919.0
2017-Sep-19 21:30N 37°11' W 000°48'5 9.2
2017-Sep-19 21:00N 37°06' W 000°48'2825.8 280 / 41020.410.8 23.518.025.0
2017-Sep-19 19:55N 36°53' W 001°19'818.8
2017-Sep-19 19:30N 36°48' W 001°26'18719.9
2017-Sep-19 10:06N 36°01' W 005°11'221.5
2017-Sep-19 10:00N 36°01' W 005°13'1121.1
2017-Sep-19 09:31N 35°57' W 005°26'14619.4
2017-Sep-19 02:00N 36°18' W 008°24'6917.6 340 / 191021.810.8 18.014.618.0
2017-Sep-18 22:05N 36°56' W 009°35'219.4
2017-Sep-18 21:59N 36°58' W 009°36'1719.4
2017-Sep-18 21:06N 37°15' W 009°40'15144.6
2017-Sep-18 21:00N 37°00' W 009°36'19164.2 330 / 151024.810.8 18.516.020.0
2017-Sep-18 20:52N 37°19' W 009°41'719.6
2017-Sep-18 20:30N 37°26' W 009°43'1019.6
2017-Sep-18 20:01N 37°36' W 009°45'251516.6
2017-Sep-18 20:00N 38°00' W 009°54'1530.0 350 / 131024.210.8 21.515.720.0
2017-Sep-18 19:29N 37°46' W 009°48'918.8
2017-Sep-18 19:00N 37°55' W 009°51'919.0
2017-Sep-18 18:30N 38°03' W 009°55'919.0
2017-Sep-18 18:01N 38°12' W 009°58'1019.5
2017-Sep-18 17:30N 38°22' W 010°02'1019.6
2017-Sep-18 17:01N 38°32' W 010°03'1019.6
2017-Sep-18 16:30N 38°41' W 010°05'1019.8
2017-Sep-18 16:00N 38°51' W 010°06'1019.4
2017-Sep-18 15:31N 39°01' W 010°05'1019.6
2017-Sep-18 15:00N 39°11' W 010°04'4232.2
2017-Sep-18 15:00N 39°12' W 010°00'918.5 1023.710.8 22.017.218.0
2017-Sep-18 14:31N 39°20' W 010°05'1019.1
2017-Sep-18 14:00N 39°30' W 010°05'1019.1
2017-Sep-18 13:30N 39°39' W 010°04'1019.1
2017-Sep-18 13:00N 39°49' W 010°04'19719.7
2017-Sep-18 03:00N 43°06' W 010°06'36519.2 290 / 221017.510.8 18.014.618.0
2017-Sep-17 08:00N 48°18' W 005°36'1542.8 330 / 161013.510.8 12.5 8.515.0
2017-Sep-17 07:38N 48°05' W 005°49'2019.7
2017-Sep-17 06:39N 48°22' W 005°34'319.7
2017-Sep-17 06:29N 48°25' W 005°31'1019.9
2017-Sep-17 06:00N 48°33' W 005°23'918.6
2017-Sep-17 05:30N 48°39' W 005°13'1019.3
2017-Sep-17 05:00N 48°46' W 005°03'1119.6
2017-Sep-17 04:28N 48°53' W 004°51'3221.6
2017-Sep-17 03:00N 49°12' W 004°12'3516.0 1010.410.8 11.5 8.516.0
2017-Sep-17 00:47N 49°37' W 003°34'518.9
2017-Sep-17 00:30N 49°41' W 003°28'1019.5
2017-Sep-17 00:00N 49°47' W 003°16'1020.2
2017-Sep-16 23:30N 49°54' W 003°05'1020.5
2017-Sep-16 23:00N 49°59' W 002°51'1121.1
2017-Sep-16 22:30N 50°02' W 002°35'3220.9
2017-Sep-16 20:58N 50°17' W 001°51'2319.6
2017-Sep-16 19:47N 50°27' W 001°18'518.7
2017-Sep-16 19:30N 50°29' W 001°11'918.2
2017-Sep-16 19:00N 50°35' W 000°60'714.5
2017-Sep-16 18:30N 50°42' W 000°58'612.7
2017-Sep-16 18:00N 50°45' W 001°07'714.0
2017-Sep-16 17:30N 50°47' W 001°18'4 8.9
2017-Sep-16 17:00N 50°51' W 001°20'4 8.6
2017-Sep-16 16:31N 50°54' W 001°25'0 0.9
2017-Sep-16 15:58N 50°54' W 001°26'0 0.0
2017-Sep-16 15:28N 50°54' W 001°26'0 0.0
2017-Sep-16 14:58N 50°54' W 001°26'0 0.0
2017-Sep-16 14:28N 50°54' W 001°26'0 0.0
2017-Sep-16 13:58N 50°54' W 001°26'0 0.0
2017-Sep-16 13:28N 50°54' W 001°26'0 0.0
2017-Sep-16 12:58N 50°54' W 001°26'0 0.0
2017-Sep-16 12:28N 50°54' W 001°26'0 0.0
2017-Sep-16 11:58N 50°54' W 001°26'0 0.0
2017-Sep-16 11:28N 50°54' W 001°26'0 0.0
2017-Sep-16 10:58N 50°54' W 001°26'0 0.0
2017-Sep-16 10:25N 50°54' W 001°26'0 0.0
2017-Sep-16 09:49N 50°54' W 001°26'0 0.0
2017-Sep-16 09:25N 50°54' W 001°26'0 0.0
2017-Sep-16 08:55N 50°54' W 001°26'0 0.0
2017-Sep-16 08:25N 50°54' W 001°26'0 0.0
2017-Sep-16 07:55N 50°54' W 001°26'0 0.0
2017-Sep-16 07:28N 50°54' W 001°26'0 0.0
2017-Sep-16 06:55N 50°54' W 001°26'0 0.0
2017-Sep-16 06:28N 50°54' W 001°26'0 0.0
2017-Sep-16 05:58N 50°54' W 001°26'0 0.0
2017-Sep-16 05:29N 50°54' W 001°26'0 0.5
2017-Sep-16 05:00N 50°54' W 001°26'3 6.6
2017-Sep-16 04:30N 50°52' W 001°22'5 9.9
2017-Sep-16 04:00N 50°48' W 001°18'612.3
2017-Sep-16 03:30N 50°46' W 001°09'917.1
2017-Sep-16 03:00N 50°41' W 000°57'612.6
2017-Sep-16 02:30N 50°37' W 000°50'1019.7
2017-Sep-16 02:01N 50°33' W 000°36'1020.9
2017-Sep-16 01:31N 50°31' W 000°20'1020.8
2017-Sep-16 01:01N 50°31' W 000°03'1121.1
2017-Sep-16 00:31N 50°33' E 000°13'1121.4
2017-Sep-16 00:01N 50°36' E 000°29'1121.6
2017-Sep-15 23:31N 50°41' E 000°44'1121.8
2017-Sep-15 23:01N 50°47' E 000°58'1121.5
2017-Sep-15 22:30N 50°54' E 001°12'1020.9
2017-Sep-15 22:00N 51°02' E 001°22'1020.4
2017-Sep-15 21:31N 51°09' E 001°34'1020.0
2017-Sep-15 21:01N 51°15' E 001°47'918.8
2017-Sep-15 20:31N 51°23' E 001°55'1019.9
2017-Sep-15 20:00N 51°32' E 001°58'1020.2
2017-Sep-15 19:30N 51°42' E 002°04'1020.8
2017-Sep-15 19:00N 51°52' E 002°10'2726.6
2017-Sep-15 18:00N 52°18' E 002°18'8120.2 300 / 201011.0 5.4 12.0 7.918.0
2017-Sep-15 14:00N 53°36' E 002°54'11118.5 300 / 151009.1 5.4 13.5 9.616.0
2017-Sep-15 08:00N 55°24' E 003°36'13222.0 330 / 231005.210.8 14.5 9.716.0
2017-Sep-15 02:00N 57°36' E 003°48'12017.2 330 / 121001.810.8 13.5 9.615.0
2017-Sep-14 19:00N 59°36' E 004°00'5930.9 330 / 22999.010.8 13.0 9.116.0
2017-Sep-14 17:04N 60°34' E 004°22'119.1
2017-Sep-14 17:00N 60°36' E 004°24'918.0
2017-Sep-14 16:30N 60°43' E 004°34'714.7
2017-Sep-14 16:00N 60°43' E 004°49'815.4
2017-Sep-14 15:30N 60°36' E 004°54'918.1
2017-Sep-14 15:00N 60°28' E 005°01'713.7
2017-Sep-14 14:30N 60°23' E 005°11'4 7.6
2017-Sep-14 14:00N 60°24' E 005°19'0 0.0
2017-Sep-14 13:30N 60°24' E 005°19'0 0.0
2017-Sep-14 13:00N 60°24' E 005°19'0 0.0
2017-Sep-14 12:30N 60°24' E 005°19'0 0.0
2017-Sep-14 12:00N 60°24' E 005°19'0 0.0
2017-Sep-14 11:30N 60°24' E 005°19'0 0.0
2017-Sep-14 11:00N 60°24' E 005°19'0 0.0
2017-Sep-14 10:30N 60°24' E 005°19'0 0.0
2017-Sep-14 10:00N 60°24' E 005°19'0 0.0
2017-Sep-14 09:30N 60°24' E 005°19'0 0.0
2017-Sep-14 09:00N 60°24' E 005°19'0 0.0
2017-Sep-14 08:30N 60°24' E 005°19'0 0.0
2017-Sep-14 08:00N 60°24' E 005°19'0 0.0
2017-Sep-14 07:30N 60°24' E 005°19'0 0.0
2017-Sep-14 07:00N 60°24' E 005°19'0 0.0
2017-Sep-14 06:30N 60°24' E 005°19'0 0.0
2017-Sep-14 06:00N 60°24' E 005°19'0 0.0
2017-Sep-14 05:30N 60°24' E 005°19'0 0.0
2017-Sep-14 05:00N 60°24' E 005°19'0 0.8
2017-Sep-14 04:31N 60°24' E 005°18'4 8.7
2017-Sep-14 04:00N 60°24' E 005°09'612.0
2017-Sep-14 03:30N 60°28' E 005°00'714.1
2017-Sep-14 03:00N 60°34' E 004°55'715.0
2017-Sep-14 02:30N 60°41' E 004°50'714.6
2017-Sep-14 02:00N 60°45' E 004°37'714.1
2017-Sep-14 01:31N 60°49' E 004°26'815.0
2017-Sep-14 01:00N 60°55' E 004°17'5113.0
2017-Sep-13 21:06N 61°46' E 004°23'214.6
2017-Sep-13 21:00N 61°47' E 004°25'714.4
2017-Sep-13 20:30N 61°53' E 004°34'713.8
2017-Sep-13 20:00N 61°58' E 004°45'714.7
2017-Sep-13 19:30N 61°56' E 004°60'713.9
2017-Sep-13 19:00N 61°54' E 005°14'815.8
2017-Sep-13 18:30N 61°55' E 005°30'6 0.4
2017-Sep-13 03:00N 61°53' E 005°42'916.9
2017-Sep-13 02:30N 61°55' E 005°25'815.9
2017-Sep-13 02:00N 61°54' E 005°08'713.9
2017-Sep-13 01:30N 61°58' E 004°56'815.2
2017-Sep-13 01:00N 61°58' E 004°40'3913.9
2017-Sep-12 22:11N 61°20' E 004°18'317.5
2017-Sep-12 22:00N 61°18' E 004°21'816.5
2017-Sep-12 21:30N 61°14' E 004°37'817.1
2017-Sep-12 21:00N 61°14' E 004°55'713.6
2017-Sep-12 20:29N 61°09' E 005°06'815.6
2017-Sep-12 20:00N 61°05' E 005°18'816.4
2017-Sep-12 19:30N 61°06' E 005°35'917.3
2017-Sep-12 19:00N 61°08' E 005°52'917.3
2017-Sep-12 18:30N 61°08' E 006°10'917.0
2017-Sep-12 18:00N 61°06' E 006°27'815.3
2017-Sep-12 17:30N 61°11' E 006°40'816.2
2017-Sep-12 17:00N 61°07' E 006°55'816.3
2017-Sep-12 16:30N 61°00' E 007°03'612.9
2017-Sep-12 16:00N 60°55' E 007°10'3 6.3
2017-Sep-12 15:30N 60°52' E 007°07'0 0.2
2017-Sep-12 15:00N 60°52' E 007°07'0 0.0
2017-Sep-12 14:30N 60°52' E 007°07'0 0.0
2017-Sep-12 14:00N 60°52' E 007°07'0 0.0
2017-Sep-12 13:30N 60°52' E 007°07'0 0.0
2017-Sep-12 13:00N 60°52' E 007°07'0 0.0
2017-Sep-12 12:30N 60°52' E 007°07'0 0.0
2017-Sep-12 12:00N 60°52' E 007°07'0 0.0
2017-Sep-12 11:30N 60°52' E 007°07'0 0.0
2017-Sep-12 11:00N 60°52' E 007°07'0 0.0
2017-Sep-12 10:30N 60°52' E 007°07'0 0.0
2017-Sep-12 10:00N 60°52' E 007°07'0 0.0
2017-Sep-12 09:30N 60°52' E 007°07'0 0.0
2017-Sep-12 09:00N 60°52' E 007°07'0 0.0
2017-Sep-12 08:30N 60°52' E 007°07'0 0.0
2017-Sep-12 08:00N 60°52' E 007°07'0 0.0
2017-Sep-12 07:26N 60°52' E 007°07'0 0.0
2017-Sep-12 06:59N 60°52' E 007°07'0 0.0
2017-Sep-12 06:29N 60°52' E 007°07'0 0.0
2017-Sep-12 05:58N 60°52' E 007°07'0 0.0
2017-Sep-12 05:28N 60°52' E 007°07'1 2.7
2017-Sep-12 05:00N 60°53' E 007°08'510.8
2017-Sep-12 04:30N 60°58' E 007°05'714.9
2017-Sep-12 04:00N 61°05' E 006°60'714.6
2017-Sep-12 03:30N 61°10' E 006°49'612.3
2017-Sep-12 03:00N 61°10' E 006°36'713.2
2017-Sep-12 02:30N 61°06' E 006°26'714.5
2017-Sep-12 02:00N 61°07' E 006°11'816.8
2017-Sep-12 01:30N 61°08' E 005°54'916.9
2017-Sep-12 01:00N 61°06' E 005°37'815.9
2017-Sep-12 00:30N 61°04' E 005°21'714.2
2017-Sep-12 00:00N 61°06' E 005°07'714.3
2017-Sep-11 23:30N 61°02' E 004°55'714.6
2017-Sep-11 23:00N 60°58' E 004°43'714.5
2017-Sep-11 22:30N 60°51' E 004°35'815.4
2017-Sep-11 22:00N 60°45' E 004°26'917.8
2017-Sep-11 21:30N 60°36' E 004°27'916.9
2017-Sep-11 21:00N 60°28' E 004°27'5017.6
2017-Sep-11 18:08N 59°38' E 004°40'317.8
2017-Sep-11 18:00N 59°35' E 004°42'917.7
2017-Sep-11 17:31N 59°28' E 004°50'918.0
2017-Sep-11 17:00N 59°20' E 004°58'918.0
2017-Sep-11 16:30N 59°11' E 005°04'815.9
2017-Sep-11 16:01N 59°07' E 005°17'816.2
2017-Sep-11 15:30N 59°05' E 005°32'714.4
2017-Sep-11 15:00N 59°00' E 005°41'2 3.6
2017-Sep-11 14:28N 58°58' E 005°44'0 0.0
2017-Sep-11 13:58N 58°58' E 005°44'0 0.0
2017-Sep-11 13:25N 58°58' E 005°44'0 0.0
2017-Sep-11 12:55N 58°58' E 005°44'0 0.0
2017-Sep-11 12:28N 58°58' E 005°44'0 0.0
2017-Sep-11 11:55N 58°58' E 005°44'0 0.0
2017-Sep-11 11:28N 58°58' E 005°44'0 0.0
2017-Sep-11 10:58N 58°58' E 005°44'0 0.0
2017-Sep-11 10:28N 58°58' E 005°44'0 0.0
2017-Sep-11 09:55N 58°58' E 005°44'0 0.0
2017-Sep-11 09:28N 58°58' E 005°44'0 0.0
2017-Sep-11 08:58N 58°58' E 005°44'0 0.0
2017-Sep-11 08:28N 58°58' E 005°44'0 0.0
2017-Sep-11 07:58N 58°58' E 005°44'0 0.0
2017-Sep-11 07:28N 58°58' E 005°44'0 0.0
2017-Sep-11 06:55N 58°58' E 005°44'0 0.0
2017-Sep-11 06:28N 58°58' E 005°44'0 0.0
2017-Sep-11 05:55N 58°58' E 005°44'0 0.1
2017-Sep-11 05:30N 58°59' E 005°44'2 3.4
2017-Sep-11 05:00N 58°60' E 005°42'510.6
2017-Sep-11 04:30N 59°03' E 005°33'815.6
2017-Sep-11 04:00N 58°55' E 005°32'713.3
2017-Sep-11 03:31N 58°49' E 005°26'917.7
2017-Sep-11 03:01N 58°41' E 005°19'918.2
2017-Sep-11 02:30N 58°32' E 005°12'918.3
2017-Sep-11 02:01N 58°24' E 005°08'12699.3
2017-Sep-11 02:00N 58°12' E 005°06'   140 / 30980.1 5.4 15.013.216.0

Dump ship's entire track history